sensor_id;sensor_type;location;lat;lon;timestamp;pressure;altitude;pressure_sealevel;temperature;humidity
54978;BME280;40873;47.522;19.106;2022-08-21T00:01:37;99744.44;;;19.64;100.00
54978;BME280;40873;47.522;19.106;2022-08-21T00:04:08;99743.78;;;19.62;100.00
54978;BME280;40873;47.522;19.106;2022-08-21T00:06:38;99741.94;;;19.62;100.00
54978;BME280;40873;47.522;19.106;2022-08-21T00:09:07;99736.06;;;19.59;100.00
54978;BME280;40873;47.522;19.106;2022-08-21T00:11:35;99728.88;;;19.67;100.00
54978;BME280;40873;47.522;19.106;2022-08-21T00:14:04;99727.38;;;19.65;100.00
54978;BME280;40873;47.522;19.106;2022-08-21T00:16:31;99723.31;;;19.53;100.00
54978;BME280;40873;47.522;19.106;2022-08-21T00:18:58;99721.81;;;19.42;100.00
54978;BME280;40873;47.522;19.106;2022-08-21T00:21:25;99716.75;;;19.39;100.00
54978;BME280;40873;47.522;19.106;2022-08-21T00:23:52;99721.44;;;19.37;100.00
54978;BME280;40873;47.522;19.106;2022-08-21T00:26:19;99719.59;;;19.29;100.00
54978;BME280;40873;47.522;19.106;2022-08-21T00:28:46;99724.78;;;19.31;100.00
54978;BME280;40873;47.522;19.106;2022-08-21T00:31:16;99715.44;;;19.43;100.00
54978;BME280;40873;47.522;19.106;2022-08-21T00:33:44;99720.63;;;19.36;100.00
54978;BME280;40873;47.522;19.106;2022-08-21T00:36:11;99719.25;;;19.32;100.00
54978;BME280;40873;47.522;19.106;2022-08-21T00:38:39;99720.63;;;19.44;100.00
54978;BME280;40873;47.522;19.106;2022-08-21T00:41:08;99727.16;;;19.42;100.00
54978;BME280;40873;47.522;19.106;2022-08-21T00:43:56;99717.28;;;19.34;100.00
54978;BME280;40873;47.522;19.106;2022-08-21T00:46:23;99730.66;;;19.34;100.00
54978;BME280;40873;47.522;19.106;2022-08-21T00:48:54;99734.81;;;19.29;100.00
54978;BME280;40873;47.522;19.106;2022-08-21T00:51:36;99732.25;;;19.19;100.00
54978;BME280;40873;47.522;19.106;2022-08-21T00:54:06;99732.56;;;19.08;100.00
54978;BME280;40873;47.522;19.106;2022-08-21T00:56:50;99727.06;;;19.09;100.00
54978;BME280;40873;47.522;19.106;2022-08-21T00:59:19;99727.78;;;19.20;100.00
54978;BME280;40873;47.522;19.106;2022-08-21T01:01:47;99725.59;;;19.15;100.00
54978;BME280;40873;47.522;19.106;2022-08-21T01:04:14;99726.56;;;19.06;100.00
54978;BME280;40873;47.522;19.106;2022-08-21T01:06:43;99732.94;;;19.13;100.00
54978;BME280;40873;47.522;19.106;2022-08-21T01:09:11;99734.91;;;19.11;100.00
54978;BME280;40873;47.522;19.106;2022-08-21T01:11:39;99729.53;;;19.03;100.00
54978;BME280;40873;47.522;19.106;2022-08-21T01:14:06;99723.38;;;19.02;100.00
54978;BME280;40873;47.522;19.106;2022-08-21T01:16:33;99718.53;;;19.06;100.00
54978;BME280;40873;47.522;19.106;2022-08-21T01:19:00;99724.66;;;18.90;100.00
54978;BME280;40873;47.522;19.106;2022-08-21T01:21:27;99721.34;;;19.04;100.00
54978;BME280;40873;47.522;19.106;2022-08-21T01:23:56;99721.53;;;19.03;100.00
54978;BME280;40873;47.522;19.106;2022-08-21T01:26:29;99715.72;;;19.15;100.00
54978;BME280;40873;47.522;19.106;2022-08-21T01:29:07;99710.84;;;19.03;100.00
54978;BME280;40873;47.522;19.106;2022-08-21T01:31:36;99712.34;;;19.05;100.00
54978;BME280;40873;47.522;19.106;2022-08-21T01:34:04;99708.41;;;18.83;100.00
54978;BME280;40873;47.522;19.106;2022-08-21T01:36:31;99709.97;;;18.94;100.00
54978;BME280;40873;47.522;19.106;2022-08-21T01:38:58;99711.38;;;19.14;100.00
54978;BME280;40873;47.522;19.106;2022-08-21T01:41:25;99707.13;;;18.96;100.00
54978;BME280;40873;47.522;19.106;2022-08-21T01:43:52;99709.50;;;18.99;100.00
54978;BME280;40873;47.522;19.106;2022-08-21T01:46:18;99706.50;;;19.02;100.00
54978;BME280;40873;47.522;19.106;2022-08-21T01:48:45;99711.84;;;19.02;100.00
54978;BME280;40873;47.522;19.106;2022-08-21T01:51:12;99707.16;;;19.12;100.00
54978;BME280;40873;47.522;19.106;2022-08-21T01:53:39;99714.22;;;19.13;100.00
54978;BME280;40873;47.522;19.106;2022-08-21T01:56:09;99708.97;;;18.95;100.00
54978;BME280;40873;47.522;19.106;2022-08-21T01:58:40;99707.47;;;18.93;100.00
54978;BME280;40873;47.522;19.106;2022-08-21T02:01:08;99706.94;;;18.89;100.00
54978;BME280;40873;47.522;19.106;2022-08-21T02:03:36;99712.81;;;18.93;100.00
54978;BME280;40873;47.522;19.106;2022-08-21T02:06:05;99710.53;;;19.06;100.00
54978;BME280;40873;47.522;19.106;2022-08-21T02:08:33;99712.19;;;18.99;100.00
54978;BME280;40873;47.522;19.106;2022-08-21T02:11:00;99722.78;;;18.82;100.00
54978;BME280;40873;47.522;19.106;2022-08-21T02:13:28;99710.56;;;18.72;100.00
54978;BME280;40873;47.522;19.106;2022-08-21T02:15:54;99720.94;;;18.83;100.00
54978;BME280;40873;47.522;19.106;2022-08-21T02:18:21;99714.69;;;18.66;100.00
54978;BME280;40873;47.522;19.106;2022-08-21T02:20:49;99716.78;;;18.88;100.00
54978;BME280;40873;47.522;19.106;2022-08-21T02:23:22;99703.13;;;18.92;100.00
54978;BME280;40873;47.522;19.106;2022-08-21T02:26:00;99697.41;;;18.86;100.00
54978;BME280;40873;47.522;19.106;2022-08-21T02:28:28;99706.91;;;18.81;100.00
54978;BME280;40873;47.522;19.106;2022-08-21T02:30:56;99715.22;;;18.70;100.00
54978;BME280;40873;47.522;19.106;2022-08-21T02:33:25;99710.47;;;18.63;100.00
54978;BME280;40873;47.522;19.106;2022-08-21T02:35:53;99707.78;;;18.63;100.00
54978;BME280;40873;47.522;19.106;2022-08-21T02:38:23;99710.88;;;18.69;100.00
54978;BME280;40873;47.522;19.106;2022-08-21T02:40:51;99705.53;;;18.69;100.00
54978;BME280;40873;47.522;19.106;2022-08-21T02:43:21;99703.72;;;18.77;100.00
54978;BME280;40873;47.522;19.106;2022-08-21T02:45:49;99696.88;;;18.75;100.00
54978;BME280;40873;47.522;19.106;2022-08-21T02:48:19;99691.03;;;18.71;100.00
54978;BME280;40873;47.522;19.106;2022-08-21T02:50:58;99695.38;;;18.72;100.00
54978;BME280;40873;47.522;19.106;2022-08-21T02:53:26;99702.88;;;18.77;100.00
54978;BME280;40873;47.522;19.106;2022-08-21T02:55:53;99697.25;;;18.88;100.00
54978;BME280;40873;47.522;19.106;2022-08-21T02:58:24;99699.41;;;18.84;100.00
54978;BME280;40873;47.522;19.106;2022-08-21T03:00:52;99696.66;;;18.68;100.00
54978;BME280;40873;47.522;19.106;2022-08-21T03:03:19;99691.56;;;18.83;100.00
54978;BME280;40873;47.522;19.106;2022-08-21T03:05:48;99698.38;;;18.77;100.00
54978;BME280;40873;47.522;19.106;2022-08-21T03:08:15;99695.53;;;18.71;100.00
54978;BME280;40873;47.522;19.106;2022-08-21T03:10:48;99702.19;;;18.67;100.00
54978;BME280;40873;47.522;19.106;2022-08-21T03:13:16;99689.31;;;18.70;100.00
54978;BME280;40873;47.522;19.106;2022-08-21T03:15:44;99705.69;;;18.67;100.00
54978;BME280;40873;47.522;19.106;2022-08-21T03:18:11;99703.25;;;18.82;100.00
54978;BME280;40873;47.522;19.106;2022-08-21T03:20:40;99704.41;;;18.79;100.00
54978;BME280;40873;47.522;19.106;2022-08-21T03:23:08;99706.09;;;18.80;100.00
54978;BME280;40873;47.522;19.106;2022-08-21T03:25:40;99698.44;;;18.85;100.00
54978;BME280;40873;47.522;19.106;2022-08-21T03:28:14;99699.56;;;18.83;100.00
54978;BME280;40873;47.522;19.106;2022-08-21T03:30:43;99701.44;;;18.90;100.00
54978;BME280;40873;47.522;19.106;2022-08-21T03:33:10;99695.41;;;18.88;100.00
54978;BME280;40873;47.522;19.106;2022-08-21T03:35:42;99700.59;;;18.90;100.00
54978;BME280;40873;47.522;19.106;2022-08-21T03:38:10;99697.09;;;18.89;100.00
54978;BME280;40873;47.522;19.106;2022-08-21T03:40:40;99701.97;;;18.94;100.00
54978;BME280;40873;47.522;19.106;2022-08-21T03:43:07;99705.28;;;18.88;100.00
54978;BME280;40873;47.522;19.106;2022-08-21T03:45:37;99702.69;;;18.70;100.00
54978;BME280;40873;47.522;19.106;2022-08-21T03:48:06;99698.44;;;18.85;100.00
54978;BME280;40873;47.522;19.106;2022-08-21T03:50:36;99705.41;;;18.78;100.00
54978;BME280;40873;47.522;19.106;2022-08-21T03:53:08;99705.06;;;18.81;100.00
54978;BME280;40873;47.522;19.106;2022-08-21T03:55:46;99696.97;;;18.99;100.00
54978;BME280;40873;47.522;19.106;2022-08-21T03:58:15;99702.56;;;18.80;100.00
54978;BME280;40873;47.522;19.106;2022-08-21T04:00:45;99712.72;;;18.76;100.00
54978;BME280;40873;47.522;19.106;2022-08-21T04:03:12;99716.41;;;18.75;100.00
54978;BME280;40873;47.522;19.106;2022-08-21T04:05:40;99708.22;;;18.77;100.00
54978;BME280;40873;47.522;19.106;2022-08-21T04:08:07;99711.59;;;18.79;100.00
54978;BME280;40873;47.522;19.106;2022-08-21T04:10:36;99722.31;;;18.87;100.00
54978;BME280;40873;47.522;19.106;2022-08-21T04:13:04;99724.81;;;18.88;100.00
54978;BME280;40873;47.522;19.106;2022-08-21T04:15:31;99726.19;;;18.93;100.00
54978;BME280;40873;47.522;19.106;2022-08-21T04:17:58;99723.34;;;18.94;100.00
54978;BME280;40873;47.522;19.106;2022-08-21T04:20:26;99716.00;;;18.96;100.00
54978;BME280;40873;47.522;19.106;2022-08-21T04:22:53;99726.19;;;19.01;100.00
54978;BME280;40873;47.522;19.106;2022-08-21T04:25:22;99726.50;;;18.89;100.00
54978;BME280;40873;47.522;19.106;2022-08-21T04:27:49;99731.66;;;18.91;100.00
54978;BME280;40873;47.522;19.106;2022-08-21T04:30:16;99733.66;;;18.89;100.00
54978;BME280;40873;47.522;19.106;2022-08-21T04:32:48;99739.03;;;18.97;100.00
54978;BME280;40873;47.522;19.106;2022-08-21T04:35:19;99738.53;;;18.94;100.00
54978;BME280;40873;47.522;19.106;2022-08-21T04:37:47;99735.19;;;18.92;100.00
54978;BME280;40873;47.522;19.106;2022-08-21T04:40:17;99728.88;;;19.01;100.00
54978;BME280;40873;47.522;19.106;2022-08-21T04:42:48;99735.91;;;19.02;100.00
54978;BME280;40873;47.522;19.106;2022-08-21T04:45:23;99732.88;;;19.05;100.00
54978;BME280;40873;47.522;19.106;2022-08-21T04:47:52;99728.38;;;19.05;100.00
54978;BME280;40873;47.522;19.106;2022-08-21T04:50:22;99735.59;;;19.13;100.00
54978;BME280;40873;47.522;19.106;2022-08-21T04:52:51;99739.63;;;19.25;100.00
54978;BME280;40873;47.522;19.106;2022-08-21T04:55:19;99746.69;;;19.26;100.00
54978;BME280;40873;47.522;19.106;2022-08-21T04:57:46;99744.78;;;19.18;100.00
54978;BME280;40873;47.522;19.106;2022-08-21T05:00:16;99749.66;;;19.15;100.00
54978;BME280;40873;47.522;19.106;2022-08-21T05:02:46;99747.69;;;19.33;100.00
54978;BME280;40873;47.522;19.106;2022-08-21T05:05:15;99746.00;;;19.24;100.00
54978;BME280;40873;47.522;19.106;2022-08-21T05:07:43;99752.19;;;19.33;100.00
54978;BME280;40873;47.522;19.106;2022-08-21T05:10:12;99750.97;;;19.19;100.00
54978;BME280;40873;47.522;19.106;2022-08-21T05:12:43;99743.13;;;19.17;100.00
54978;BME280;40873;47.522;19.106;2022-08-21T05:15:12;99752.69;;;19.20;100.00
54978;BME280;40873;47.522;19.106;2022-08-21T05:17:40;99749.63;;;19.07;100.00
54978;BME280;40873;47.522;19.106;2022-08-21T05:20:11;99743.78;;;19.11;100.00
54978;BME280;40873;47.522;19.106;2022-08-21T05:22:39;99747.66;;;19.25;100.00
54978;BME280;40873;47.522;19.106;2022-08-21T05:25:07;99754.00;;;19.24;100.00
54978;BME280;40873;47.522;19.106;2022-08-21T05:27:37;99746.34;;;19.37;100.00
54978;BME280;40873;47.522;19.106;2022-08-21T05:30:07;99755.19;;;19.22;100.00
54978;BME280;40873;47.522;19.106;2022-08-21T05:32:35;99744.78;;;19.18;100.00
54978;BME280;40873;47.522;19.106;2022-08-21T05:35:06;99750.50;;;19.24;100.00
54978;BME280;40873;47.522;19.106;2022-08-21T05:37:34;99758.41;;;19.33;100.00
54978;BME280;40873;47.522;19.106;2022-08-21T05:40:01;99751.91;;;19.44;100.00
54978;BME280;40873;47.522;19.106;2022-08-21T05:42:47;99744.69;;;19.44;100.00
54978;BME280;40873;47.522;19.106;2022-08-21T05:45:26;99750.56;;;19.48;100.00
54978;BME280;40873;47.522;19.106;2022-08-21T05:48:16;99744.69;;;19.44;100.00
54978;BME280;40873;47.522;19.106;2022-08-21T05:50:43;99752.53;;;19.38;100.00
54978;BME280;40873;47.522;19.106;2022-08-21T05:53:11;99742.19;;;19.35;100.00
54978;BME280;40873;47.522;19.106;2022-08-21T05:55:39;99752.19;;;19.33;100.00
54978;BME280;40873;47.522;19.106;2022-08-21T05:58:18;99750.03;;;19.28;100.00
54978;BME280;40873;47.522;19.106;2022-08-21T06:00:47;99751.41;;;19.40;100.00
54978;BME280;40873;47.522;19.106;2022-08-21T06:03:22;99753.38;;;19.38;100.00
54978;BME280;40873;47.522;19.106;2022-08-21T06:05:50;99753.88;;;19.34;100.00
54978;BME280;40873;47.522;19.106;2022-08-21T06:08:18;99754.91;;;19.41;100.00
54978;BME280;40873;47.522;19.106;2022-08-21T06:10:46;99752.44;;;19.56;100.00
54978;BME280;40873;47.522;19.106;2022-08-21T06:13:14;99758.09;;;19.53;100.00
54978;BME280;40873;47.522;19.106;2022-08-21T06:15:42;99749.28;;;19.60;99.81
54978;BME280;40873;47.522;19.106;2022-08-21T06:18:10;99755.22;;;19.46;99.78
54978;BME280;40873;47.522;19.106;2022-08-21T06:20:37;99757.41;;;19.34;100.00
54978;BME280;40873;47.522;19.106;2022-08-21T06:23:05;99757.59;;;19.49;100.00
54978;BME280;40873;47.522;19.106;2022-08-21T06:25:32;99744.41;;;19.56;100.00
54978;BME280;40873;47.522;19.106;2022-08-21T06:28:05;99748.63;;;19.66;100.00
54978;BME280;40873;47.522;19.106;2022-08-21T06:30:33;99758.34;;;19.76;100.00
54978;BME280;40873;47.522;19.106;2022-08-21T06:33:00;99761.03;;;19.92;99.23
54978;BME280;40873;47.522;19.106;2022-08-21T06:35:27;99759.53;;;19.97;98.65
54978;BME280;40873;47.522;19.106;2022-08-21T06:37:57;99768.34;;;19.82;98.26
54978;BME280;40873;47.522;19.106;2022-08-21T06:40:25;99767.22;;;20.01;97.55
54978;BME280;40873;47.522;19.106;2022-08-21T06:42:56;99771.72;;;20.16;96.38
54978;BME280;40873;47.522;19.106;2022-08-21T06:45:23;99775.22;;;20.41;94.75
54978;BME280;40873;47.522;19.106;2022-08-21T06:47:53;99772.88;;;20.38;93.95
54978;BME280;40873;47.522;19.106;2022-08-21T06:50:20;99776.75;;;20.27;94.12
54978;BME280;40873;47.522;19.106;2022-08-21T06:52:47;99766.16;;;20.42;93.33
54978;BME280;40873;47.522;19.106;2022-08-21T06:55:14;99771.34;;;20.44;93.43
54978;BME280;40873;47.522;19.106;2022-08-21T06:57:47;99763.66;;;20.41;93.64
54978;BME280;40873;47.522;19.106;2022-08-21T07:00:18;99762.34;;;20.53;91.86
54978;BME280;40873;47.522;19.106;2022-08-21T07:02:45;99754.63;;;20.42;92.27
54978;BME280;40873;47.522;19.106;2022-08-21T07:05:12;99761.19;;;20.31;93.33
54978;BME280;40873;47.522;19.106;2022-08-21T07:07:45;99756.66;;;20.32;93.79
54978;BME280;40873;47.522;19.106;2022-08-21T07:10:13;99756.28;;;20.51;92.98
54978;BME280;40873;47.522;19.106;2022-08-21T07:12:49;99761.63;;;20.67;91.41
54978;BME280;40873;47.522;19.106;2022-08-21T07:15:26;99767.53;;;20.55;92.61
54978;BME280;40873;47.522;19.106;2022-08-21T07:17:53;99768.16;;;20.65;92.12
54978;BME280;40873;47.522;19.106;2022-08-21T07:20:20;99765.19;;;20.60;91.78
54978;BME280;40873;47.522;19.106;2022-08-21T07:22:47;99759.78;;;20.68;91.33
54978;BME280;40873;47.522;19.106;2022-08-21T07:25:14;99765.44;;;20.81;91.81
54978;BME280;40873;47.522;19.106;2022-08-21T07:27:41;99760.88;;;20.90;90.49
54978;BME280;40873;47.522;19.106;2022-08-21T07:30:08;99758.81;;;21.08;90.07
54978;BME280;40873;47.522;19.106;2022-08-21T07:32:35;99763.75;;;20.88;90.45
54978;BME280;40873;47.522;19.106;2022-08-21T07:35:03;99768.72;;;21.07;88.91
54978;BME280;40873;47.522;19.106;2022-08-21T07:37:30;99757.06;;;21.23;88.50
54978;BME280;40873;47.522;19.106;2022-08-21T07:39:57;99767.69;;;21.08;89.32
54978;BME280;40873;47.522;19.106;2022-08-21T07:42:24;99757.22;;;21.30;87.79
54978;BME280;40873;47.522;19.106;2022-08-21T07:44:51;99754.31;;;21.40;88.30
54978;BME280;40873;47.522;19.106;2022-08-21T07:47:22;99747.53;;;21.52;87.47
54978;BME280;40873;47.522;19.106;2022-08-21T07:50:10;99750.78;;;21.70;85.77
54978;BME280;40873;47.522;19.106;2022-08-21T07:52:40;99757.56;;;21.81;85.64
54978;BME280;40873;47.522;19.106;2022-08-21T07:55:09;99745.56;;;21.92;84.77
54978;BME280;40873;47.522;19.106;2022-08-21T07:57:37;99746.63;;;22.05;83.35
54978;BME280;40873;47.522;19.106;2022-08-21T08:00:07;99746.44;;;22.07;83.71
54978;BME280;40873;47.522;19.106;2022-08-21T08:02:34;99749.81;;;22.61;82.17
54978;BME280;40873;47.522;19.106;2022-08-21T08:05:08;99741.66;;;22.69;79.42
54978;BME280;40873;47.522;19.106;2022-08-21T08:07:35;99741.16;;;22.51;79.60
54978;BME280;40873;47.522;19.106;2022-08-21T08:10:04;99738.56;;;22.43;79.84
54978;BME280;40873;47.522;19.106;2022-08-21T08:12:32;99733.47;;;22.33;80.26
54978;BME280;40873;47.522;19.106;2022-08-21T08:15:00;99734.13;;;22.35;81.85
54978;BME280;40873;47.522;19.106;2022-08-21T08:17:27;99725.31;;;22.56;80.73
54978;BME280;40873;47.522;19.106;2022-08-21T08:19:54;99722.63;;;22.71;81.82
54978;BME280;40873;47.522;19.106;2022-08-21T08:22:23;99724.09;;;22.44;81.11
54978;BME280;40873;47.522;19.106;2022-08-21T08:24:51;99714.47;;;22.50;82.00
54978;BME280;40873;47.522;19.106;2022-08-21T08:27:19;99718.38;;;22.77;80.33
54978;BME280;40873;47.522;19.106;2022-08-21T08:29:46;99722.91;;;22.76;79.21
54978;BME280;40873;47.522;19.106;2022-08-21T08:32:14;99723.19;;;22.52;80.84
54978;BME280;40873;47.522;19.106;2022-08-21T08:34:40;99729.97;;;22.62;80.18
54978;BME280;40873;47.522;19.106;2022-08-21T08:37:08;99722.94;;;22.61;80.25
54978;BME280;40873;47.522;19.106;2022-08-21T08:39:36;99715.50;;;22.78;80.31
54978;BME280;40873;47.522;19.106;2022-08-21T08:42:12;99717.97;;;22.80;79.13
54978;BME280;40873;47.522;19.106;2022-08-21T08:45:10;99717.97;;;22.80;79.39
54978;BME280;40873;47.522;19.106;2022-08-21T08:47:44;99710.50;;;22.60;79.33
54978;BME280;40873;47.522;19.106;2022-08-21T08:50:44;99707.06;;;22.81;79.25
54978;BME280;40873;47.522;19.106;2022-08-21T08:53:18;99723.16;;;23.25;79.76
54978;BME280;40873;47.522;19.106;2022-08-21T08:55:48;99721.47;;;22.88;77.81
54978;BME280;40873;47.522;19.106;2022-08-21T08:58:29;99716.13;;;23.10;78.21
54978;BME280;40873;47.522;19.106;2022-08-21T09:00:57;99719.97;;;23.37;77.97
54978;BME280;40873;47.522;19.106;2022-08-21T09:03:25;99725.75;;;23.55;76.46
54978;BME280;40873;47.522;19.106;2022-08-21T09:06:16;99722.47;;;23.38;75.81
54978;BME280;40873;47.522;19.106;2022-08-21T09:09:08;99727.25;;;23.07;77.24
54978;BME280;40873;47.522;19.106;2022-08-21T09:11:48;99722.34;;;23.10;77.55
54978;BME280;40873;47.522;19.106;2022-08-21T09:14:31;99724.00;;;23.11;77.83
54978;BME280;40873;47.522;19.106;2022-08-21T09:17:18;99719.31;;;23.35;76.92
54978;BME280;40873;47.522;19.106;2022-08-21T09:20:02;99719.69;;;23.68;75.31
54978;BME280;40873;47.522;19.106;2022-08-21T09:25:36;99717.47;;;23.71;75.21
54978;BME280;40873;47.522;19.106;2022-08-21T09:28:09;99723.94;;;23.41;76.16
54978;BME280;40873;47.522;19.106;2022-08-21T09:30:40;99720.00;;;23.58;75.52
54978;BME280;40873;47.522;19.106;2022-08-21T09:33:09;99716.25;;;23.59;75.53
54978;BME280;40873;47.522;19.106;2022-08-21T09:35:49;99713.72;;;24.22;73.21
54978;BME280;40873;47.522;19.106;2022-08-21T09:38:51;99720.28;;;24.34;72.58
54978;BME280;40873;47.522;19.106;2022-08-21T09:41:29;99715.97;;;24.18;73.40
54978;BME280;40873;47.522;19.106;2022-08-21T09:43:57;99711.91;;;24.01;73.78
54978;BME280;40873;47.522;19.106;2022-08-21T09:46:26;99715.22;;;24.03;74.70
54978;BME280;40873;47.522;19.106;2022-08-21T09:48:57;99716.06;;;24.31;72.92
54978;BME280;40873;47.522;19.106;2022-08-21T09:51:29;99711.38;;;24.75;72.02
54978;BME280;40873;47.522;19.106;2022-08-21T09:56:55;99709.63;;;24.60;71.30
54978;BME280;40873;47.522;19.106;2022-08-21T09:59:41;99714.66;;;24.64;71.29
54978;BME280;40873;47.522;19.106;2022-08-21T10:05:08;99705.78;;;25.18;69.25
54978;BME280;40873;47.522;19.106;2022-08-21T10:07:37;99704.38;;;25.35;69.01
54978;BME280;40873;47.522;19.106;2022-08-21T10:10:15;99716.28;;;25.67;68.25
54978;BME280;40873;47.522;19.106;2022-08-21T10:13:23;99705.47;;;25.54;68.47
54978;BME280;40873;47.522;19.106;2022-08-21T10:18:40;99709.63;;;25.02;69.19
54978;BME280;40873;47.522;19.106;2022-08-21T10:21:23;99708.06;;;25.21;68.47
54978;BME280;40873;47.522;19.106;2022-08-21T10:26:57;99717.78;;;25.08;70.52
54978;BME280;40873;47.522;19.106;2022-08-21T10:29:41;99704.13;;;24.75;70.20
54978;BME280;40873;47.522;19.106;2022-08-21T10:35:01;99708.56;;;24.96;71.17
54978;BME280;40873;47.522;19.106;2022-08-21T10:40:26;99708.56;;;24.96;71.37
54978;BME280;40873;47.522;19.106;2022-08-21T10:56:38;99705.69;;;24.56;72.82
54978;BME280;40873;47.522;19.106;2022-08-21T10:59:31;99704.44;;;24.31;73.08
54978;BME280;40873;47.522;19.106;2022-08-21T11:02:15;99710.16;;;24.15;73.37
54978;BME280;40873;47.522;19.106;2022-08-21T11:05:35;99713.41;;;24.10;73.97
54978;BME280;40873;47.522;19.106;2022-08-21T11:07:51;99703.41;;;24.04;73.94
54978;BME280;40873;47.522;19.106;2022-08-21T11:13:48;99708.19;;;24.02;75.67
54978;BME280;40873;47.522;19.106;2022-08-21T11:18:56;99702.28;;;23.92;76.55
54978;BME280;40873;47.522;19.106;2022-08-21T11:21:45;99697.91;;;23.91;76.78
54978;BME280;40873;47.522;19.106;2022-08-21T11:24:32;99697.78;;;23.99;77.49
54978;BME280;40873;47.522;19.106;2022-08-21T11:27:24;99702.84;;;24.09;76.20
54978;BME280;40873;47.522;19.106;2022-08-21T11:29:55;99695.19;;;24.12;75.34
54978;BME280;40873;47.522;19.106;2022-08-21T11:32:39;99690.34;;;24.29;74.65
54978;BME280;40873;47.522;19.106;2022-08-21T11:49:02;99687.31;;;24.11;74.23
54978;BME280;40873;47.522;19.106;2022-08-21T11:51:41;99687.31;;;24.11;73.73
54978;BME280;40873;47.522;19.106;2022-08-21T11:56:50;99678.66;;;24.15;74.61
54978;BME280;40873;47.522;19.106;2022-08-21T11:59:40;99673.94;;;23.96;74.58
54978;BME280;40873;47.522;19.106;2022-08-21T12:02:15;99674.91;;;24.16;74.38
54978;BME280;40873;47.522;19.106;2022-08-21T12:05:06;99678.44;;;24.17;73.93
54978;BME280;40873;47.522;19.106;2022-08-21T12:07:40;99661.38;;;24.10;74.20
54978;BME280;40873;47.522;19.106;2022-08-21T12:10:16;99671.44;;;24.22;74.76
54978;BME280;40873;47.522;19.106;2022-08-21T12:12:44;99667.63;;;24.38;74.08
54978;BME280;40873;47.522;19.106;2022-08-21T12:17:54;99670.81;;;24.27;74.28
54978;BME280;40873;47.522;19.106;2022-08-21T12:20:34;99670.41;;;24.23;74.92
54978;BME280;40873;47.522;19.106;2022-08-21T12:23:15;99665.16;;;24.15;75.62
54978;BME280;40873;47.522;19.106;2022-08-21T12:25:46;99664.34;;;24.15;76.28
54978;BME280;40873;47.522;19.106;2022-08-21T12:28:21;99666.78;;;23.82;77.38
54978;BME280;40873;47.522;19.106;2022-08-21T12:30:49;99668.31;;;23.69;78.93
54978;BME280;40873;47.522;19.106;2022-08-21T12:35:49;99658.00;;;23.51;81.16
54978;BME280;40873;47.522;19.106;2022-08-21T12:38:39;99653.56;;;23.44;81.83
54978;BME280;40873;47.522;19.106;2022-08-21T12:41:17;99669.13;;;23.27;85.18
54978;BME280;40873;47.522;19.106;2022-08-21T12:43:57;99658.59;;;23.11;84.33
54978;BME280;40873;47.522;19.106;2022-08-21T12:46:46;99649.75;;;22.95;82.73
54978;BME280;40873;47.522;19.106;2022-08-21T12:49:36;99651.84;;;23.00;87.29
54978;BME280;40873;47.522;19.106;2022-08-21T12:52:20;99651.69;;;22.87;87.05
54978;BME280;40873;47.522;19.106;2022-08-21T12:54:47;99646.78;;;22.76;85.86
54978;BME280;40873;47.522;19.106;2022-08-21T12:57:23;99655.50;;;22.78;87.08
54978;BME280;40873;47.522;19.106;2022-08-21T12:59:56;99651.41;;;22.82;85.60
54978;BME280;40873;47.522;19.106;2022-08-21T13:02:32;99642.06;;;22.78;89.73
54978;BME280;40873;47.522;19.106;2022-08-21T13:05:04;99656.81;;;22.67;91.17
54978;BME280;40873;47.522;19.106;2022-08-21T13:07:34;99649.50;;;22.61;92.55
54978;BME280;40873;47.522;19.106;2022-08-21T13:10:21;99647.81;;;22.60;95.27
54978;BME280;40873;47.522;19.106;2022-08-21T13:12:49;99649.03;;;22.42;97.32
54978;BME280;40873;47.522;19.106;2022-08-21T13:15:25;99634.19;;;22.32;98.97
54978;BME280;40873;47.522;19.106;2022-08-21T13:18:00;99633.94;;;22.27;94.42
54978;BME280;40873;47.522;19.106;2022-08-21T13:20:34;99633.84;;;22.35;95.43
54978;BME280;40873;47.522;19.106;2022-08-21T13:23:05;99631.16;;;22.20;98.42
54978;BME280;40873;47.522;19.106;2022-08-21T13:25:36;99633.53;;;22.00;100.00
54978;BME280;40873;47.522;19.106;2022-08-21T13:28:10;99628.88;;;21.94;100.00
54978;BME280;40873;47.522;19.106;2022-08-21T13:30:55;99635.44;;;21.77;100.00
54978;BME280;40873;47.522;19.106;2022-08-21T13:33:25;99633.59;;;21.77;100.00
54978;BME280;40873;47.522;19.106;2022-08-21T13:36:16;99640.44;;;21.80;100.00
54978;BME280;40873;47.522;19.106;2022-08-21T13:38:44;99633.59;;;21.77;100.00
54978;BME280;40873;47.522;19.106;2022-08-21T13:41:25;99637.03;;;21.86;100.00
54978;BME280;40873;47.522;19.106;2022-08-21T13:43:59;99643.94;;;21.80;100.00
54978;BME280;40873;47.522;19.106;2022-08-21T13:46:30;99640.69;;;21.70;100.00
54978;BME280;40873;47.522;19.106;2022-08-21T13:48:59;99642.97;;;21.58;100.00
54978;BME280;40873;47.522;19.106;2022-08-21T13:51:27;99641.31;;;21.57;98.80
54978;BME280;40873;47.522;19.106;2022-08-21T13:53:54;99633.88;;;21.45;100.00
54978;BME280;40873;47.522;19.106;2022-08-21T13:56:26;99645.19;;;21.32;100.00
54978;BME280;40873;47.522;19.106;2022-08-21T13:58:55;99632.16;;;21.21;100.00
54978;BME280;40873;47.522;19.106;2022-08-21T14:01:49;99642.88;;;21.29;100.00
54978;BME280;40873;47.522;19.106;2022-08-21T14:04:42;99635.19;;;21.18;100.00
54978;BME280;40873;47.522;19.106;2022-08-21T14:07:31;99639.41;;;21.12;100.00
54978;BME280;40873;47.522;19.106;2022-08-21T14:10:03;99627.69;;;21.13;100.00
54978;BME280;40873;47.522;19.106;2022-08-21T14:12:52;99637.22;;;21.16;100.00